Time;durP1;ratioP1;P1;durP2;ratioP2;P2;SDS_P1;SDS_P2;PMS_P1;PMS_P2;Temp;Humidity;BMP_temperature;BMP_pressure;BME280_temperature;BME280_humidity;BME280_pressure;Samples;Min_cycle;Max_cycle;Signal;HPM_P1;HPM_P2
2021/05/03 00:02:06;;;;;;;13.15;5.50;;;6.10;99.90;;;;;;5063925;28;20077;-80
2021/05/03 00:04:39;;;;;;;15.65;5.57;;;6.10;99.90;;;;;;5065280;28;20036;-80
2021/05/03 00:07:07;;;;;;;11.90;5.20;;;6.00;99.90;;;;;;5072018;28;20064;-79
2021/05/03 00:09:39;;;;;;;11.43;5.30;;;6.00;99.90;;;;;;5087248;28;20276;-81
2021/05/03 00:45:31;;;;;;;8.40;5.30;;;5.40;99.90;;;;;;5076713;22;20053;-79
2021/05/03 00:47:57;;;;;;;14.93;5.78;;;5.60;99.90;;;;;;5055854;28;20057;-79
2021/05/03 00:50:28;;;;;;;7.85;5.63;;;5.50;99.90;;;;;;5056054;28;20063;-80
2021/05/03 00:52:55;;;;;;;9.27;5.30;;;5.50;99.90;;;;;;5056943;28;20061;-80
2021/05/03 00:55:23;;;;;;;9.35;5.65;;;5.50;99.90;;;;;;5056638;28;20180;-80
2021/05/03 00:57:49;;;;;;;11.63;5.22;;;5.40;99.90;;;;;;5056099;28;20163;-80
2021/05/03 01:00:17;;;;;;;13.30;5.70;;;5.40;99.90;;;;;;5056004;28;20091;-80
2021/05/03 01:02:43;;;;;;;10.68;5.65;;;5.40;99.90;;;;;;5057299;28;20144;-81
2021/05/03 01:05:11;;;;;;;9.73;5.57;;;5.40;99.90;;;;;;5057334;28;20080;-80
2021/05/03 01:07:37;;;;;;;12.02;6.55;;;5.50;99.90;;;;;;5057524;28;20091;-80
2021/05/03 01:10:04;;;;;;;8.75;5.47;;;5.40;99.90;;;;;;5059111;28;20049;-81
2021/05/03 01:12:31;;;;;;;9.82;5.57;;;5.40;99.90;;;;;;5058937;28;20084;-79
2021/05/03 01:14:58;;;;;;;13.60;5.82;;;5.40;99.90;;;;;;5059270;28;20048;-80
2021/05/03 01:17:35;;;;;;;9.38;6.07;;;5.30;99.90;;;;;;5058579;28;20053;-81
2021/05/03 01:20:08;;;;;;;10.85;6.63;;;5.30;99.90;;;;;;5059135;28;20096;-80
2021/05/03 01:22:35;;;;;;;10.88;5.70;;;5.20;99.90;;;;;;5055797;28;20572;-79
2021/05/03 01:25:02;;;;;;;11.45;6.70;;;5.20;99.90;;;;;;5055715;28;20140;-80
2021/05/03 01:27:29;;;;;;;8.00;6.45;;;5.20;99.90;;;;;;5056874;28;20132;-80
2021/05/03 01:29:55;;;;;;;9.82;7.32;;;5.20;99.90;;;;;;5059623;28;20139;-82
2021/05/03 01:32:21;;;;;;;12.13;7.70;;;5.20;99.90;;;;;;5055999;28;20131;-78
2021/05/03 01:34:48;;;;;;;13.20;7.72;;;5.20;99.90;;;;;;5055959;28;20104;-80
2021/05/03 01:37:15;;;;;;;11.88;7.70;;;5.20;99.90;;;;;;5055093;28;20081;-80
2021/05/03 01:39:42;;;;;;;11.38;8.05;;;5.20;99.90;;;;;;5055078;28;20053;-79
2021/05/03 01:42:09;;;;;;;13.02;7.55;;;5.10;99.90;;;;;;5054774;28;20052;-81
2021/05/03 01:44:36;;;;;;;11.82;7.32;;;5.10;99.90;;;;;;5059268;28;20471;-81
2021/05/03 01:47:02;;;;;;;12.18;7.80;;;5.00;99.90;;;;;;5058872;28;20085;-82
2021/05/03 01:49:29;;;;;;;11.88;8.25;;;5.00;99.90;;;;;;5058417;28;20128;-80
2021/05/03 01:51:56;;;;;;;12.82;7.32;;;5.00;99.90;;;;;;5058154;28;20109;-80
2021/05/03 01:54:23;;;;;;;9.38;6.95;;;5.00;99.90;;;;;;5058389;28;20107;-83
2021/05/03 01:56:50;;;;;;;15.57;7.43;;;4.90;99.90;;;;;;5058378;28;20076;-81
2021/05/03 01:59:17;;;;;;;9.77;7.47;;;4.90;99.90;;;;;;5055447;28;20049;-77
2021/05/03 02:01:43;;;;;;;10.35;7.25;;;4.90;99.90;;;;;;5055001;28;20072;-79
2021/05/03 02:04:10;;;;;;;17.33;7.63;;;4.90;99.90;;;;;;5055281;28;20136;-78
2021/05/03 02:06:37;;;;;;;10.85;7.80;;;4.90;99.90;;;;;;5056533;28;20284;-78
2021/05/03 02:09:08;;;;;;;10.95;7.68;;;4.90;99.90;;;;;;5060389;28;20072;-79
2021/05/03 02:11:35;;;;;;;9.70;7.55;;;4.90;99.90;;;;;;5057937;28;20045;-79
2021/05/03 02:14:02;;;;;;;9.88;7.63;;;4.90;99.90;;;;;;5063587;28;20080;-78
2021/05/03 02:16:28;;;;;;;12.38;7.47;;;4.90;99.90;;;;;;5063794;28;20084;-79
2021/05/03 02:18:55;;;;;;;15.05;7.97;;;4.80;99.90;;;;;;5062505;28;20105;-79
2021/05/03 02:21:21;;;;;;;8.95;7.50;;;4.90;99.90;;;;;;5061078;28;20104;-79
2021/05/03 02:23:47;;;;;;;9.55;7.22;;;4.80;99.90;;;;;;5054237;28;20055;-79
2021/05/03 02:26:15;;;;;;;10.43;6.82;;;4.80;99.90;;;;;;5053848;28;20118;-79
2021/05/03 02:28:41;;;;;;;13.32;7.38;;;4.80;99.90;;;;;;5055027;28;20555;-79
2021/05/03 02:31:08;;;;;;;12.60;6.88;;;4.70;99.90;;;;;;5056071;28;20128;-80
2021/05/03 02:33:35;;;;;;;11.95;7.15;;;4.70;99.90;;;;;;5057342;28;20057;-79
2021/05/03 02:36:02;;;;;;;12.63;7.50;;;4.70;99.90;;;;;;5055482;28;20104;-79
2021/05/03 02:38:30;;;;;;;9.82;7.13;;;4.70;99.90;;;;;;5055728;28;20045;-78
2021/05/03 02:40:57;;;;;;;14.82;8.00;;;4.70;99.90;;;;;;5055300;28;20051;-78
2021/05/03 02:43:23;;;;;;;12.13;6.95;;;4.70;99.90;;;;;;5053615;28;20118;-81
2021/05/03 02:45:50;;;;;;;12.82;7.32;;;4.60;99.90;;;;;;5054840;28;20152;-79
2021/05/03 02:48:17;;;;;;;15.30;7.65;;;4.70;99.90;;;;;;5058383;28;20045;-79
2021/05/03 02:50:43;;;;;;;13.73;7.30;;;4.60;99.90;;;;;;5054863;28;20076;-81
2021/05/03 02:53:10;;;;;;;12.35;6.82;;;4.60;99.90;;;;;;5055360;28;20087;-80
2021/05/03 02:55:36;;;;;;;11.65;8.00;;;4.60;99.90;;;;;;5058637;28;20472;-80
2021/05/03 02:58:02;;;;;;;10.13;7.72;;;4.60;99.90;;;;;;5056998;28;20140;-80
2021/05/03 03:00:31;;;;;;;11.63;7.97;;;4.50;99.90;;;;;;5057623;28;20105;-80
2021/05/03 03:02:58;;;;;;;13.75;7.55;;;4.50;99.90;;;;;;5056784;28;20053;-80
2021/05/03 03:05:26;;;;;;;10.25;7.57;;;4.50;99.90;;;;;;5057231;28;20483;-80
2021/05/03 03:07:53;;;;;;;10.65;7.50;;;4.40;99.90;;;;;;5057776;28;20091;-82
2021/05/03 03:10:20;;;;;;;13.13;7.93;;;4.40;99.90;;;;;;5055735;28;20136;-80
2021/05/03 03:12:48;;;;;;;12.23;7.90;;;4.30;99.90;;;;;;5056021;28;20132;-80
2021/05/03 03:15:16;;;;;;;11.38;7.55;;;4.30;99.90;;;;;;5059326;28;20425;-78
2021/05/03 03:17:47;;;;;;;10.85;7.82;;;4.20;99.90;;;;;;5057820;28;20053;-77
2021/05/03 03:20:14;;;;;;;10.43;7.53;;;4.20;99.90;;;;;;5053431;28;20526;-80
2021/05/03 03:22:42;;;;;;;12.40;7.53;;;4.20;99.90;;;;;;5055111;28;20052;-79
2021/05/03 03:25:08;;;;;;;13.52;7.68;;;4.20;99.90;;;;;;5060877;28;20087;-80
2021/05/03 03:27:36;;;;;;;13.35;8.27;;;4.20;99.90;;;;;;5059564;28;20137;-80
2021/05/03 03:30:03;;;;;;;15.55;7.38;;;4.10;99.90;;;;;;5054344;28;20103;-79
2021/05/03 03:32:30;;;;;;;11.73;7.45;;;4.10;99.90;;;;;;5047052;28;20500;-82
2021/05/03 03:34:56;;;;;;;13.38;9.18;;;4.10;99.90;;;;;;5054258;28;20053;-80
2021/05/03 03:37:22;;;;;;;12.27;7.50;;;4.00;99.90;;;;;;5054261;28;20458;-81
2021/05/03 03:39:50;;;;;;;16.50;8.32;;;4.00;99.90;;;;;;5054338;28;20502;-81
2021/05/03 03:42:16;;;;;;;16.90;8.20;;;3.90;99.90;;;;;;5053966;28;20061;-80
2021/05/03 03:44:43;;;;;;;13.38;8.45;;;4.00;99.90;;;;;;5053514;28;20544;-79
2021/05/03 03:47:09;;;;;;;16.73;7.68;;;3.90;99.90;;;;;;5053416;28;20049;-80
2021/05/03 03:49:36;;;;;;;11.27;8.15;;;3.90;99.90;;;;;;5053975;28;20068;-79
2021/05/03 03:52:02;;;;;;;16.27;8.15;;;3.90;99.90;;;;;;5052301;28;20049;-78
2021/05/03 03:54:29;;;;;;;13.80;8.70;;;3.90;99.90;;;;;;5051458;28;20080;-78
2021/05/03 03:56:56;;;;;;;12.88;8.07;;;3.80;99.90;;;;;;5051450;28;20578;-82
2021/05/03 03:59:23;;;;;;;16.13;7.97;;;3.80;99.90;;;;;;5051770;28;20478;-78
2021/05/03 04:01:50;;;;;;;13.77;8.60;;;3.80;99.90;;;;;;5054508;28;20140;-83
2021/05/03 04:04:20;;;;;;;13.85;8.70;;;3.80;99.90;;;;;;5055112;28;20132;-78
2021/05/03 04:06:51;;;;;;;11.95;8.60;;;3.80;99.90;;;;;;5055064;28;20060;-79
2021/05/03 04:09:26;;;;;;;13.30;9.63;;;3.70;99.90;;;;;;5055400;28;20107;-78
2021/05/03 04:12:07;;;;;;;13.68;9.40;;;3.70;99.90;;;;;;5054846;28;20049;-81
2021/05/03 04:25:34;;;;;;;15.80;8.93;;;3.70;99.90;;;;;;5053805;28;20049;-80
2021/05/03 04:28:01;;;;;;;14.00;9.80;;;3.80;99.90;;;;;;5057195;28;20585;-79
2021/05/03 04:30:28;;;;;;;12.50;9.70;;;3.90;99.90;;;;;;5058784;28;20098;-82
2021/05/03 04:32:55;;;;;;;12.77;9.23;;;4.00;99.90;;;;;;5058182;28;20075;-81
2021/05/03 04:35:21;;;;;;;13.55;8.88;;;4.20;99.90;;;;;;5058960;28;20139;-84
2021/05/03 04:37:48;;;;;;;14.00;8.70;;;4.40;99.90;;;;;;5058276;28;20203;-83
2021/05/03 04:40:15;;;;;;;13.18;8.30;;;4.50;99.90;;;;;;5060201;28;20084;-80
2021/05/03 04:42:41;;;;;;;15.73;9.10;;;4.70;99.90;;;;;;5061726;28;20091;-81
2021/05/03 04:45:11;;;;;;;14.38;9.18;;;4.70;99.90;;;;;;5064812;28;20084;-82
2021/05/03 04:47:38;;;;;;;12.38;8.82;;;4.90;99.90;;;;;;5067322;28;20052;-82
2021/05/03 04:50:06;;;;;;;12.85;8.57;;;5.10;99.90;;;;;;5069291;28;20060;-82
2021/05/03 04:52:33;;;;;;;13.48;8.82;;;5.40;99.90;;;;;;5066583;28;20132;-80
2021/05/03 04:54:59;;;;;;;13.95;8.88;;;5.70;99.90;;;;;;5064753;28;20490;-82
2021/05/03 04:57:26;;;;;;;16.30;8.27;;;6.00;99.90;;;;;;5058414;28;20124;-79
2021/05/03 04:59:52;;;;;;;12.80;8.38;;;6.10;99.90;;;;;;5057907;28;20079;-78
2021/05/03 05:02:19;;;;;;;13.32;9.13;;;6.20;99.90;;;;;;5057588;28;20083;-81
2021/05/03 05:04:46;;;;;;;14.23;8.65;;;6.30;99.90;;;;;;5057797;28;20152;-80
2021/05/03 05:07:12;;;;;;;14.35;9.38;;;6.60;99.90;;;;;;5058102;28;20129;-80
2021/05/03 05:09:39;;;;;;;12.57;8.85;;;7.00;99.90;;;;;;5057864;28;20067;-79
2021/05/03 05:12:06;;;;;;;13.07;8.63;;;7.20;99.90;;;;;;5055526;28;20049;-79
2021/05/03 05:14:32;;;;;;;17.95;8.80;;;7.60;99.90;;;;;;5054539;28;20055;-78
2021/05/03 05:16:58;;;;;;;14.63;8.48;;;7.70;99.90;;;;;;5055211;28;20065;-77
2021/05/03 05:19:25;;;;;;;11.48;8.10;;;7.80;99.90;;;;;;5037174;28;20049;-79
2021/05/03 05:21:52;;;;;;;12.93;8.80;;;7.70;99.90;;;;;;5054540;28;20084;-78
2021/05/03 05:24:18;;;;;;;13.10;8.50;;;7.70;99.90;;;;;;5054341;28;20127;-79
2021/05/03 05:26:45;;;;;;;11.57;8.50;;;7.80;99.90;;;;;;5053928;28;20139;-78
2021/05/03 05:29:11;;;;;;;13.77;8.40;;;7.70;99.90;;;;;;5054193;28;20084;-78
2021/05/03 05:31:38;;;;;;;13.07;8.20;;;7.50;99.90;;;;;;5054295;28;20131;-78
2021/05/03 05:34:04;;;;;;;11.95;9.02;;;7.40;99.90;;;;;;5054352;28;20132;-78
2021/05/03 05:36:31;;;;;;;11.75;8.98;;;7.40;99.90;;;;;;5061968;28;20059;-81
2021/05/03 05:38:59;;;;;;;11.10;8.15;;;7.40;99.90;;;;;;5074127;28;20090;-82
2021/05/03 05:41:26;;;;;;;12.10;8.63;;;7.50;99.90;;;;;;5073879;28;20089;-78
2021/05/03 05:43:54;;;;;;;15.13;8.07;;;7.70;99.90;;;;;;5074349;28;20139;-77
2021/05/03 05:46:21;;;;;;;10.75;8.45;;;7.60;99.90;;;;;;5077744;28;20053;-83
2021/05/03 05:48:48;;;;;;;15.88;8.57;;;7.70;99.90;;;;;;5071682;28;20125;-78
2021/05/03 05:51:14;;;;;;;15.65;8.45;;;7.80;99.90;;;;;;5060541;28;20108;-77
2021/05/03 05:53:41;;;;;;;13.32;9.05;;;7.80;99.90;;;;;;5053739;28;20136;-77
2021/05/03 05:56:08;;;;;;;16.77;8.82;;;7.80;99.90;;;;;;5052861;28;20041;-75
2021/05/03 05:58:34;;;;;;;16.20;8.13;;;7.80;99.90;;;;;;5052503;28;20152;-77
2021/05/03 06:01:02;;;;;;;11.23;8.73;;;8.00;99.90;;;;;;5052487;28;20124;-77
2021/05/03 06:03:28;;;;;;;13.73;8.57;;;8.20;99.90;;;;;;5051881;28;20176;-78
2021/05/03 06:05:57;;;;;;;19.50;10.75;;;8.00;99.90;;;;;;5052369;28;20048;-79
2021/05/03 06:08:23;;;;;;;13.07;8.80;;;8.10;99.90;;;;;;5052326;28;20083;-78
2021/05/03 06:10:49;;;;;;;16.50;9.23;;;8.00;99.90;;;;;;5052109;28;20124;-77
2021/05/03 06:13:17;;;;;;;16.45;9.48;;;7.90;99.90;;;;;;5051796;28;20127;-77
2021/05/03 06:15:43;;;;;;;17.92;10.35;;;7.80;99.90;;;;;;5051948;28;20124;-77
2021/05/03 06:18:09;;;;;;;17.20;10.43;;;7.70;99.90;;;;;;5051521;28;20499;-78
2021/05/03 06:20:36;;;;;;;14.27;9.93;;;7.70;99.90;;;;;;5056766;28;20135;-77
2021/05/03 06:23:04;;;;;;;15.30;10.45;;;7.70;99.90;;;;;;5063519;28;20051;-76
2021/05/03 06:25:30;;;;;;;14.85;9.88;;;7.90;99.90;;;;;;5054495;28;20396;-77
2021/05/03 06:27:57;;;;;;;20.98;9.85;;;8.40;99.90;;;;;;5052680;28;20123;-77
2021/05/03 06:30:25;;;;;;;14.45;9.52;;;8.90;99.90;;;;;;5067596;28;20124;-77
2021/05/03 06:32:52;;;;;;;15.60;9.07;;;9.20;99.90;;;;;;5059453;28;20529;-77
2021/05/03 06:35:19;;;;;;;14.32;9.32;;;9.50;99.90;;;;;;5060131;28;20533;-80
2021/05/03 06:37:45;;;;;;;16.00;9.68;;;10.10;99.90;;;;;;5053140;28;20136;-77
2021/05/03 06:40:13;;;;;;;17.65;9.65;;;10.50;99.90;;;;;;5052138;28;20049;-78
2021/05/03 06:42:41;;;;;;;16.70;10.02;;;11.30;99.90;;;;;;5051895;28;20132;-79
2021/05/03 06:45:08;;;;;;;13.48;9.15;;;12.00;99.90;;;;;;5047064;22;20050;-80
2021/05/03 06:47:36;;;;;;;17.00;9.93;;;12.20;99.90;;;;;;5032256;28;20073;-80
2021/05/03 06:50:11;;;;;;;18.33;11.13;;;12.10;99.90;;;;;;5026885;28;20570;-80
2021/05/03 06:52:37;;;;;;;20.35;11.43;;;12.10;99.90;;;;;;5016922;28;20049;-81
2021/05/03 06:55:05;;;;;;;13.93;10.07;;;12.10;99.90;;;;;;5032154;28;20132;-82
2021/05/03 06:57:31;;;;;;;17.63;10.15;;;12.30;99.90;;;;;;5035463;28;20144;-80
2021/05/03 06:59:58;;;;;;;14.73;9.90;;;12.60;99.90;;;;;;5037293;28;20108;-81
2021/05/03 07:02:24;;;;;;;11.70;8.38;;;12.80;99.90;;;;;;5037441;28;20053;-81
2021/05/03 07:04:52;;;;;;;13.32;9.30;;;12.80;99.90;;;;;;5036300;28;20071;-81
2021/05/03 07:07:18;;;;;;;21.55;10.32;;;12.80;99.90;;;;;;5036349;28;20137;-81
2021/05/03 07:09:47;;;;;;;12.70;9.55;;;12.90;99.90;;;;;;5037172;28;20053;-81
2021/05/03 07:12:18;;;;;;;13.52;9.38;;;12.90;99.90;;;;;;5037777;28;20049;-81
2021/05/03 07:14:44;;;;;;;12.73;9.63;;;13.20;99.90;;;;;;5036753;28;20049;-82
2021/05/03 07:17:11;;;;;;;13.57;8.75;;;13.10;99.90;;;;;;5036081;28;20085;-82
2021/05/03 07:19:40;;;;;;;9.98;7.60;;;13.40;99.90;;;;;;5038179;28;20481;-81
2021/05/03 07:22:11;;;;;;;11.80;8.05;;;13.70;99.90;;;;;;5038040;28;20171;-83
2021/05/03 07:24:39;;;;;;;10.73;7.78;;;14.50;99.90;;;;;;5037796;28;20478;-82
2021/05/03 07:27:07;;;;;;;10.90;7.07;;;15.10;99.90;;;;;;5037039;28;20081;-81
2021/05/03 07:29:34;;;;;;;10.35;7.07;;;15.60;99.90;;;;;;5040302;28;20065;-79
2021/05/03 07:32:00;;;;;;;11.43;7.05;;;15.90;99.90;;;;;;5043223;28;20140;-79
2021/05/03 07:34:26;;;;;;;7.78;6.40;;;16.10;99.90;;;;;;5045330;28;20113;-79
2021/05/03 07:36:53;;;;;;;9.10;6.50;;;16.60;99.90;;;;;;5049290;28;20053;-80
2021/05/03 07:39:20;;;;;;;8.60;6.03;;;17.00;99.30;;;;;;5050154;28;20053;-81
2021/05/03 07:41:47;;;;;;;8.85;5.97;;;17.00;98.30;;;;;;5051148;28;20069;-81
2021/05/03 07:44:13;;;;;;;9.38;5.97;;;17.20;97.20;;;;;;5048755;28;20104;-81
2021/05/03 07:46:40;;;;;;;6.90;5.70;;;17.50;96.40;;;;;;5048642;28;20080;-80
2021/05/03 07:49:07;;;;;;;8.88;6.22;;;17.90;94.80;;;;;;5050977;28;20060;-81
2021/05/03 07:51:34;;;;;;;11.48;5.95;;;17.80;93.90;;;;;;5049639;28;20072;-81
2021/05/03 07:54:06;;;;;;;9.50;6.28;;;17.80;92.90;;;;;;5047665;28;20052;-81
2021/05/03 07:56:36;;;;;;;8.48;5.38;;;18.00;92.60;;;;;;5049578;28;20429;-79
2021/05/03 07:59:03;;;;;;;10.48;5.60;;;17.90;90.40;;;;;;5048962;28;20046;-78
2021/05/03 08:01:32;;;;;;;9.85;5.80;;;17.80;88.40;;;;;;5048324;28;20045;-78
2021/05/03 08:03:58;;;;;;;6.65;4.95;;;17.70;86.00;;;;;;5044373;28;20069;-80
2021/05/03 08:06:25;;;;;;;9.20;5.80;;;17.40;85.10;;;;;;5043646;28;20097;-81
2021/05/03 08:08:51;;;;;;;9.10;5.10;;;17.30;88.30;;;;;;5049031;28;20077;-79
2021/05/03 08:11:19;;;;;;;6.93;5.32;;;17.70;86.90;;;;;;5050716;28;20060;-79
2021/05/03 08:13:47;;;;;;;7.70;5.10;;;18.10;83.10;;;;;;5047029;28;20132;-80
2021/05/03 08:16:20;;;;;;;12.07;5.05;;;17.40;80.50;;;;;;5046310;28;20128;-78
2021/05/03 08:18:46;;;;;;;7.95;5.55;;;17.70;81.30;;;;;;5046870;28;20571;-79
2021/05/03 08:21:13;;;;;;;9.23;6.38;;;17.30;82.20;;;;;;5047971;28;20050;-78
2021/05/03 08:23:40;;;;;;;10.43;5.57;;;17.30;82.30;;;;;;5047752;28;20421;-79
2021/05/03 08:26:08;;;;;;;9.82;5.53;;;17.50;80.70;;;;;;5047001;28;20137;-79
2021/05/03 08:28:34;;;;;;;11.48;4.93;;;17.50;79.70;;;;;;5049102;28;20072;-79
2021/05/03 08:31:02;;;;;;;11.57;5.60;;;17.60;79.40;;;;;;5046637;28;20069;-78
2021/05/03 08:33:29;;;;;;;9.18;5.50;;;17.90;78.10;;;;;;5044071;28;20053;-79
2021/05/03 08:35:57;;;;;;;11.20;5.68;;;17.70;77.40;;;;;;5046483;28;20088;-79
2021/05/03 08:38:25;;;;;;;10.13;5.78;;;17.60;79.10;;;;;;5050114;28;20049;-80
2021/05/03 08:40:53;;;;;;;9.75;6.40;;;17.60;79.90;;;;;;5051500;28;20480;-79
2021/05/03 08:43:22;;;;;;;14.10;6.22;;;17.50;80.10;;;;;;5051171;28;20045;-80
2021/05/03 08:45:49;;;;;;;15.70;8.82;;;17.70;81.10;;;;;;5047623;28;20050;-79
2021/05/03 08:48:20;;;;;;;8.95;6.88;;;17.50;79.60;;;;;;5047305;28;20053;-79
2021/05/03 08:51:00;;;;;;;9.33;6.73;;;17.10;81.20;;;;;;5047002;28;20121;-80
2021/05/03 08:53:30;;;;;;;10.00;6.88;;;16.90;80.70;;;;;;5040954;28;20049;-80
2021/05/03 08:55:57;;;;;;;10.63;7.30;;;16.70;79.80;;;;;;5040573;28;20053;-80
2021/05/03 08:58:24;;;;;;;10.00;6.90;;;16.40;79.90;;;;;;5040008;28;20049;-80
2021/05/03 09:00:51;;;;;;;9.30;7.10;;;16.10;81.00;;;;;;5043014;28;20050;-79
2021/05/03 09:03:19;;;;;;;10.13;7.45;;;16.00;80.40;;;;;;5044200;28;20087;-80
2021/05/03 09:05:46;;;;;;;11.98;7.85;;;16.00;82.60;;;;;;5045312;28;20049;-80
2021/05/03 09:08:23;;;;;;;10.82;7.32;;;16.20;83.90;;;;;;5042711;28;20052;-80
2021/05/03 09:10:51;;;;;;;12.57;7.25;;;16.20;83.10;;;;;;5040122;28;20045;-80
2021/05/03 09:13:17;;;;;;;12.98;7.85;;;16.30;82.90;;;;;;5039430;28;20076;-79
2021/05/03 09:15:46;;;;;;;11.05;7.60;;;16.50;84.70;;;;;;5040917;28;20139;-80
2021/05/03 09:18:13;;;;;;;14.38;7.57;;;17.00;85.00;;;;;;5039855;28;20073;-81
2021/05/03 09:20:40;;;;;;;9.30;7.53;;;17.30;81.70;;;;;;5040204;28;20054;-80
2021/05/03 09:23:08;;;;;;;11.80;7.43;;;17.40;80.70;;;;;;5039354;28;20045;-79
2021/05/03 09:25:37;;;;;;;10.57;7.53;;;17.00;79.60;;;;;;5040420;28;20049;-81
2021/05/03 09:28:07;;;;;;;14.35;8.23;;;16.60;81.80;;;;;;5043484;28;20088;-78
2021/05/03 09:30:39;;;;;;;9.43;7.22;;;16.50;82.80;;;;;;5043673;28;20348;-81
2021/05/03 09:33:27;;;;;;;14.38;7.43;;;16.70;82.30;;;;;;5042026;28;20559;-81
2021/05/03 09:35:56;;;;;;;10.02;7.72;;;16.90;79.20;;;;;;5034494;28;20095;-80
2021/05/03 09:38:38;;;;;;;9.90;7.80;;;17.10;79.90;;;;;;5039139;28;20056;-81
2021/05/03 09:41:17;;;;;;;11.85;8.55;;;17.50;80.00;;;;;;5039362;28;20128;-80
2021/05/03 09:43:46;;;;;;;10.90;7.97;;;17.70;80.10;;;;;;5038066;28;20049;-81
2021/05/03 09:46:30;;;;;;;10.52;8.00;;;17.60;79.60;;;;;;5040720;28;20071;-81
2021/05/03 09:48:58;;;;;;;11.80;7.78;;;17.20;79.90;;;;;;5039528;28;20068;-80
2021/05/03 09:51:43;;;;;;;10.60;7.50;;;16.70;77.70;;;;;;5043186;28;20053;-79
2021/05/03 09:54:11;;;;;;;11.82;7.78;;;16.50;78.60;;;;;;5058474;28;20080;-80
2021/05/03 09:56:52;;;;;;;10.32;8.05;;;16.10;77.70;;;;;;5060512;28;20056;-81
2021/05/03 09:59:36;;;;;;;10.65;7.88;;;15.80;78.60;;;;;;5060949;28;20630;-81
2021/05/03 10:02:15;;;;;;;11.55;8.60;;;15.80;79.60;;;;;;5056491;28;20127;-78
2021/05/03 10:04:50;;;;;;;12.45;8.95;;;15.90;79.30;;;;;;5056670;28;20053;-81
2021/05/03 10:07:19;;;;;;;12.77;8.50;;;15.90;81.70;;;;;;5059811;28;20049;-79
2021/05/03 10:09:48;;;;;;;9.10;8.00;;;15.90;81.10;;;;;;5046863;28;20113;-78
2021/05/03 10:12:16;;;;;;;10.85;9.15;;;15.90;80.70;;;;;;5041853;28;20041;-79
2021/05/03 10:14:44;;;;;;;9.82;8.13;;;16.00;79.90;;;;;;5040804;28;20107;-79
2021/05/03 10:17:12;;;;;;;13.77;8.27;;;16.30;80.20;;;;;;5038632;28;20144;-78
2021/05/03 10:19:39;;;;;;;11.73;7.78;;;16.40;79.70;;;;;;5041223;28;20049;-80
2021/05/03 10:22:05;;;;;;;10.13;7.30;;;16.30;78.60;;;;;;5043186;28;20045;-79
2021/05/03 10:24:34;;;;;;;10.52;7.82;;;16.60;79.40;;;;;;5042295;28;20054;-79
2021/05/03 10:27:01;;;;;;;10.10;7.35;;;17.00;78.60;;;;;;5041305;28;20046;-79
2021/05/03 10:29:40;;;;;;;10.07;7.50;;;16.90;76.50;;;;;;5042595;28;20110;-80
2021/05/03 10:32:07;;;;;;;12.88;8.57;;;17.00;77.40;;;;;;5043342;28;20386;-81
2021/05/03 10:34:40;;;;;;;9.10;8.00;;;16.90;75.80;;;;;;5040973;28;20107;-81
2021/05/03 10:37:40;;;;;;;11.73;8.30;;;16.80;78.30;;;;;;5040375;28;20096;-81
2021/05/03 10:40:23;;;;;;;9.98;7.45;;;16.70;76.70;;;;;;5040016;28;20049;-80
2021/05/03 10:43:12;;;;;;;10.23;7.22;;;16.50;77.50;;;;;;5041510;28;20048;-81
2021/05/03 10:45:40;;;;;;;8.35;7.28;;;16.80;78.70;;;;;;5022420;28;20129;-80
2021/05/03 10:48:27;;;;;;;13.63;8.00;;;16.70;75.30;;;;;;5020557;28;20098;-80
2021/05/03 10:50:54;;;;;;;13.88;7.88;;;16.80;75.90;;;;;;5016262;28;20136;-79
2021/05/03 10:53:32;;;;;;;10.05;8.20;;;16.80;77.40;;;;;;5018475;28;20056;-80
2021/05/03 10:56:00;;;;;;;10.05;7.32;;;17.00;76.80;;;;;;5012672;28;20486;-79
2021/05/03 10:58:27;;;;;;;8.25;7.18;;;17.20;76.40;;;;;;5014785;28;20053;-78
2021/05/03 11:00:59;;;;;;;11.80;7.85;;;17.50;77.00;;;;;;5017413;28;20088;-78
2021/05/03 11:04:03;;;;;;;16.30;8.00;;;17.70;76.60;;;;;;5013051;28;20049;-75
2021/05/03 11:07:03;;;;;;;9.70;7.53;;;17.70;75.50;;;;;;5015507;28;20132;-80
2021/05/03 11:09:39;;;;;;;10.60;7.90;;;17.60;75.60;;;;;;5015591;28;20053;-80
2021/05/03 11:12:29;;;;;;;14.05;9.00;;;17.20;73.90;;;;;;5018223;28;20050;-80
2021/05/03 11:15:20;;;;;;;11.20;8.15;;;17.00;76.10;;;;;;5016529;28;20054;-81
2021/05/03 11:18:20;;;;;;;10.23;8.18;;;17.00;76.90;;;;;;5019159;28;20488;-82
2021/05/03 11:21:13;;;;;;;15.95;9.15;;;17.00;77.20;;;;;;5019637;28;20073;-81
2021/05/03 11:23:40;;;;;;;11.75;8.38;;;17.20;77.30;;;;;;5017676;28;20093;-82
2021/05/03 11:26:22;;;;;;;11.32;8.75;;;17.60;77.20;;;;;;5019600;28;20138;-81
2021/05/03 11:28:50;;;;;;;11.20;8.68;;;17.80;75.30;;;;;;5018981;28;20112;-81
2021/05/03 11:31:20;;;;;;;11.25;8.93;;;17.80;76.20;;;;;;5040231;28;20048;-80
2021/05/03 11:33:56;;;;;;;10.43;8.90;;;17.80;74.60;;;;;;5056215;28;20517;-80
2021/05/03 11:36:26;;;;;;;13.57;8.65;;;17.40;75.60;;;;;;5056126;28;20053;-82
2021/05/03 11:39:00;;;;;;;11.27;8.27;;;17.10;76.40;;;;;;5059904;28;20048;-81
2021/05/03 11:41:42;;;;;;;10.15;8.63;;;17.10;75.20;;;;;;5060890;28;20079;-83
2021/05/03 11:46:52;;;;;;;14.95;8.90;;;16.90;77.00;;;;;;5058936;28;20057;-82
2021/05/03 11:49:20;;;;;;;11.85;8.90;;;17.00;78.50;;;;;;5059807;28;20077;-82
2021/05/03 11:51:49;;;;;;;10.95;9.30;;;16.90;78.00;;;;;;5057128;28;20052;-80
2021/05/03 11:54:27;;;;;;;14.10;9.57;;;16.70;78.10;;;;;;5056079;28;20341;-80
2021/05/03 11:56:58;;;;;;;13.57;9.25;;;16.50;79.50;;;;;;5057174;28;20462;-80
2021/05/03 11:59:26;;;;;;;13.48;8.85;;;16.50;79.50;;;;;;5057613;28;20076;-79
2021/05/03 12:02:00;;;;;;;10.07;8.32;;;16.60;80.10;;;;;;5057607;28;20045;-80
2021/05/03 12:04:38;;;;;;;15.95;8.50;;;16.90;78.60;;;;;;5057229;28;20048;-79
2021/05/03 12:07:13;;;;;;;9.07;7.75;;;17.30;78.60;;;;;;5049784;28;20135;-81
2021/05/03 12:09:40;;;;;;;8.48;7.22;;;17.50;76.10;;;;;;5041866;28;20105;-78
2021/05/03 12:12:07;;;;;;;9.32;7.10;;;17.50;72.90;;;;;;5041686;28;20106;-81
2021/05/03 12:14:45;;;;;;;11.25;7.80;;;17.60;74.30;;;;;;5037591;28;20144;-80
2021/05/03 12:17:30;;;;;;;9.00;7.22;;;17.40;73.00;;;;;;5040115;28;20073;-82
2021/05/03 12:20:02;;;;;;;8.23;7.07;;;17.50;73.00;;;;;;5040196;28;20137;-82
2021/05/03 12:22:30;;;;;;;11.05;7.60;;;17.40;73.40;;;;;;5043988;28;20081;-83
2021/05/03 12:25:01;;;;;;;9.65;7.50;;;17.10;73.00;;;;;;5043801;28;20081;-80
2021/05/03 12:27:29;;;;;;;9.57;8.27;;;16.90;73.70;;;;;;5043848;28;20199;-80
2021/05/03 12:29:58;;;;;;;10.05;8.20;;;16.70;74.10;;;;;;5044858;28;20112;-82
2021/05/03 12:32:29;;;;;;;11.02;8.02;;;16.50;75.60;;;;;;5046476;28;20053;-79
2021/05/03 12:34:56;;;;;;;12.97;8.60;;;16.60;75.60;;;;;;5045703;28;20057;-80
2021/05/03 12:37:24;;;;;;;13.68;7.78;;;16.70;75.90;;;;;;5046601;28;20461;-81
2021/05/03 12:40:13;;;;;;;10.52;7.95;;;16.90;76.40;;;;;;5053930;28;20057;-80
2021/05/03 12:42:42;;;;;;;11.15;8.13;;;17.10;77.20;;;;;;5051916;28;20053;-82
2021/05/03 12:45:29;;;;;;;11.40;7.70;;;17.20;76.00;;;;;;5102990;23;20053;-78
2021/05/03 12:48:25;;;;;;;13.25;7.60;;;17.20;75.60;;;;;;5080436;28;20055;-80
2021/05/03 12:51:20;;;;;;;12.00;7.45;;;17.40;75.40;;;;;;5080389;28;20111;-78
2021/05/03 12:53:57;;;;;;;9.63;5.95;;;17.20;73.60;;;;;;5079591;28;20048;-77
2021/05/03 12:56:31;;;;;;;8.02;6.00;;;17.00;68.80;;;;;;5079484;28;20092;-78
2021/05/03 12:59:07;;;;;;;9.52;5.90;;;16.70;69.00;;;;;;5079010;28;20452;-78
2021/05/03 13:01:43;;;;;;;10.88;5.63;;;16.80;70.90;;;;;;5081340;28;20541;-77
2021/05/03 13:04:34;;;;;;;9.95;6.05;;;17.00;72.20;;;;;;5081108;28;20108;-80
2021/05/03 13:29:56;;;;;;;9.32;6.70;;;17.00;73.00;;;;;;5092270;28;20047;-79
2021/05/03 13:32:27;;;;;;;8.18;6.10;;;17.10;72.90;;;;;;5090634;28;20516;-83
2021/05/03 13:34:55;;;;;;;8.38;6.00;;;17.20;72.50;;;;;;5086735;28;20052;-81
2021/05/03 13:37:24;;;;;;;9.43;6.78;;;17.40;74.40;;;;;;5079658;28;20163;-81
2021/05/03 13:39:51;;;;;;;9.82;7.00;;;17.10;72.20;;;;;;5083456;28;20056;-80
2021/05/03 13:42:17;;;;;;;10.75;5.93;;;17.10;72.70;;;;;;5085154;28;20036;-80
2021/05/03 13:44:45;;;;;;;9.15;5.70;;;17.00;73.20;;;;;;5083401;28;20108;-80
2021/05/03 13:47:13;;;;;;;7.53;5.68;;;17.00;71.80;;;;;;5078826;28;20063;-79
2021/05/03 13:49:39;;;;;;;10.18;6.40;;;16.70;72.10;;;;;;5080447;28;20044;-80
2021/05/03 13:52:08;;;;;;;7.60;5.63;;;16.60;72.20;;;;;;5078401;28;20040;-79
2021/05/03 13:54:36;;;;;;;7.13;5.63;;;16.60;70.80;;;;;;5076893;28;20055;-79
2021/05/03 13:57:04;;;;;;;7.95;5.75;;;16.60;70.50;;;;;;5081976;28;20052;-81
2021/05/03 13:59:31;;;;;;;7.45;6.10;;;16.50;72.40;;;;;;5089213;28;20085;-79
2021/05/03 14:01:58;;;;;;;7.40;6.13;;;16.40;71.90;;;;;;5084613;28;20048;-79
2021/05/03 14:04:26;;;;;;;7.82;6.43;;;16.30;72.50;;;;;;5080588;28;20472;-80
2021/05/03 14:06:53;;;;;;;6.80;6.07;;;16.20;73.10;;;;;;5080402;28;20072;-79